sensor_id;sensor_type;location;lat;lon;timestamp;temperature;humidity
32706;DHT22;19094;50.972;3.538;2023-05-19T00:00:16;18.50;55.30
32706;DHT22;19094;50.972;3.538;2023-05-19T00:02:43;18.50;55.30
32706;DHT22;19094;50.972;3.538;2023-05-19T00:05:12;18.50;55.30
32706;DHT22;19094;50.972;3.538;2023-05-19T00:07:40;18.40;55.30
32706;DHT22;19094;50.972;3.538;2023-05-19T00:10:08;18.40;55.30
32706;DHT22;19094;50.972;3.538;2023-05-19T00:12:35;18.40;55.50
32706;DHT22;19094;50.972;3.538;2023-05-19T00:15:01;18.40;55.50
32706;DHT22;19094;50.972;3.538;2023-05-19T00:17:26;18.40;55.30
32706;DHT22;19094;50.972;3.538;2023-05-19T00:19:52;18.40;55.30
32706;DHT22;19094;50.972;3.538;2023-05-19T00:22:19;18.40;55.50
32706;DHT22;19094;50.972;3.538;2023-05-19T00:24:44;18.40;55.60
32706;DHT22;19094;50.972;3.538;2023-05-19T00:27:10;18.40;55.40
32706;DHT22;19094;50.972;3.538;2023-05-19T00:29:35;18.40;55.40
32706;DHT22;19094;50.972;3.538;2023-05-19T00:32:01;18.30;55.30
32706;DHT22;19094;50.972;3.538;2023-05-19T00:34:27;18.30;55.60
32706;DHT22;19094;50.972;3.538;2023-05-19T00:36:52;18.30;55.50
32706;DHT22;19094;50.972;3.538;2023-05-19T00:39:18;18.30;55.50
32706;DHT22;19094;50.972;3.538;2023-05-19T00:41:44;18.30;55.60
32706;DHT22;19094;50.972;3.538;2023-05-19T00:44:09;18.30;55.70
32706;DHT22;19094;50.972;3.538;2023-05-19T00:46:35;18.30;55.50
32706;DHT22;19094;50.972;3.538;2023-05-19T00:49:02;18.20;55.60
32706;DHT22;19094;50.972;3.538;2023-05-19T00:51:28;18.20;55.60
32706;DHT22;19094;50.972;3.538;2023-05-19T00:53:54;18.20;55.60
32706;DHT22;19094;50.972;3.538;2023-05-19T00:56:21;18.20;55.80
32706;DHT22;19094;50.972;3.538;2023-05-19T00:58:50;18.20;55.70
32706;DHT22;19094;50.972;3.538;2023-05-19T01:01:16;18.20;55.90
32706;DHT22;19094;50.972;3.538;2023-05-19T01:03:43;18.20;55.90
32706;DHT22;19094;50.972;3.538;2023-05-19T01:06:11;18.20;55.80
32706;DHT22;19094;50.972;3.538;2023-05-19T01:08:37;18.20;55.90
32706;DHT22;19094;50.972;3.538;2023-05-19T01:11:04;18.10;56.00
32706;DHT22;19094;50.972;3.538;2023-05-19T01:13:31;18.10;56.00
32706;DHT22;19094;50.972;3.538;2023-05-19T01:16:26;18.10;56.00
32706;DHT22;19094;50.972;3.538;2023-05-19T01:18:59;18.10;55.00
32706;DHT22;19094;50.972;3.538;2023-05-19T01:33:04;18.00;55.40
32706;DHT22;19094;50.972;3.538;2023-05-19T01:35:31;17.90;56.40
32706;DHT22;19094;50.972;3.538;2023-05-19T01:38:00;18.00;56.40
32706;DHT22;19094;50.972;3.538;2023-05-19T01:40:27;18.00;56.40
32706;DHT22;19094;50.972;3.538;2023-05-19T01:42:55;18.00;56.30
32706;DHT22;19094;50.972;3.538;2023-05-19T01:45:21;18.00;56.30
32706;DHT22;19094;50.972;3.538;2023-05-19T01:47:51;17.90;56.40
32706;DHT22;19094;50.972;3.538;2023-05-19T01:50:17;17.90;56.30
32706;DHT22;19094;50.972;3.538;2023-05-19T01:52:43;17.90;56.40
32706;DHT22;19094;50.972;3.538;2023-05-19T01:55:09;17.90;56.50
32706;DHT22;19094;50.972;3.538;2023-05-19T01:57:40;17.90;56.50
32706;DHT22;19094;50.972;3.538;2023-05-19T02:08:29;17.80;56.40
32706;DHT22;19094;50.972;3.538;2023-05-19T02:13:49;17.80;55.50
32706;DHT22;19094;50.972;3.538;2023-05-19T02:16:19;17.80;56.80
32706;DHT22;19094;50.972;3.538;2023-05-19T02:18:46;17.70;56.90
32706;DHT22;19094;50.972;3.538;2023-05-19T02:21:12;17.70;56.80
32706;DHT22;19094;50.972;3.538;2023-05-19T02:23:41;17.70;56.90
32706;DHT22;19094;50.972;3.538;2023-05-19T02:26:06;17.60;56.90
32706;DHT22;19094;50.972;3.538;2023-05-19T02:28:33;17.60;57.10
32706;DHT22;19094;50.972;3.538;2023-05-19T02:30:59;17.60;57.10
32706;DHT22;19094;50.972;3.538;2023-05-19T02:33:25;17.60;57.10
32706;DHT22;19094;50.972;3.538;2023-05-19T02:35:52;17.60;57.40
32706;DHT22;19094;50.972;3.538;2023-05-19T02:38:17;17.60;57.10
32706;DHT22;19094;50.972;3.538;2023-05-19T02:40:43;17.50;57.10
32706;DHT22;19094;50.972;3.538;2023-05-19T02:43:09;17.50;57.30
32706;DHT22;19094;50.972;3.538;2023-05-19T02:45:34;17.50;57.40
32706;DHT22;19094;50.972;3.538;2023-05-19T02:48:00;17.50;57.30
32706;DHT22;19094;50.972;3.538;2023-05-19T02:50:26;17.50;57.40
32706;DHT22;19094;50.972;3.538;2023-05-19T02:52:52;17.40;57.50
32706;DHT22;19094;50.972;3.538;2023-05-19T02:55:18;17.40;57.60
32706;DHT22;19094;50.972;3.538;2023-05-19T02:57:44;17.40;57.70
32706;DHT22;19094;50.972;3.538;2023-05-19T03:00:10;17.40;57.60
32706;DHT22;19094;50.972;3.538;2023-05-19T03:02:35;17.40;57.50
32706;DHT22;19094;50.972;3.538;2023-05-19T03:05:01;17.40;57.60
32706;DHT22;19094;50.972;3.538;2023-05-19T03:07:28;17.30;57.50
32706;DHT22;19094;50.972;3.538;2023-05-19T03:09:53;17.30;57.80
32706;DHT22;19094;50.972;3.538;2023-05-19T03:12:19;17.20;58.00
32706;DHT22;19094;50.972;3.538;2023-05-19T03:14:46;17.30;58.00
32706;DHT22;19094;50.972;3.538;2023-05-19T03:17:12;17.30;58.00
32706;DHT22;19094;50.972;3.538;2023-05-19T03:19:37;17.20;58.00
32706;DHT22;19094;50.972;3.538;2023-05-19T03:22:03;17.20;58.10
32706;DHT22;19094;50.972;3.538;2023-05-19T03:24:29;17.20;58.00
32706;DHT22;19094;50.972;3.538;2023-05-19T03:26:55;17.10;58.20
32706;DHT22;19094;50.972;3.538;2023-05-19T03:29:20;17.10;58.20
32706;DHT22;19094;50.972;3.538;2023-05-19T03:31:46;17.10;58.20
32706;DHT22;19094;50.972;3.538;2023-05-19T03:34:11;17.10;58.20
32706;DHT22;19094;50.972;3.538;2023-05-19T03:36:37;17.10;58.30
32706;DHT22;19094;50.972;3.538;2023-05-19T03:39:04;17.10;58.30
32706;DHT22;19094;50.972;3.538;2023-05-19T03:41:31;17.10;58.40
32706;DHT22;19094;50.972;3.538;2023-05-19T03:43:56;17.10;58.50
32706;DHT22;19094;50.972;3.538;2023-05-19T03:46:22;17.10;58.40
32706;DHT22;19094;50.972;3.538;2023-05-19T03:48:48;17.10;58.50
32706;DHT22;19094;50.972;3.538;2023-05-19T03:51:13;17.10;58.30
32706;DHT22;19094;50.972;3.538;2023-05-19T03:53:39;17.10;58.40
32706;DHT22;19094;50.972;3.538;2023-05-19T03:56:05;17.10;58.40
32706;DHT22;19094;50.972;3.538;2023-05-19T03:58:32;17.10;58.40
32706;DHT22;19094;50.972;3.538;2023-05-19T04:00:57;17.10;58.50
32706;DHT22;19094;50.972;3.538;2023-05-19T04:03:23;17.00;58.60
32706;DHT22;19094;50.972;3.538;2023-05-19T04:05:51;17.00;58.50
32706;DHT22;19094;50.972;3.538;2023-05-19T04:08:16;17.00;58.50
32706;DHT22;19094;50.972;3.538;2023-05-19T04:10:42;17.00;58.60
32706;DHT22;19094;50.972;3.538;2023-05-19T04:13:08;17.00;58.60
32706;DHT22;19094;50.972;3.538;2023-05-19T04:15:33;17.00;58.70
32706;DHT22;19094;50.972;3.538;2023-05-19T04:17:59;17.00;58.60
32706;DHT22;19094;50.972;3.538;2023-05-19T04:20:25;16.90;58.80
32706;DHT22;19094;50.972;3.538;2023-05-19T04:22:50;16.90;58.80
32706;DHT22;19094;50.972;3.538;2023-05-19T04:25:16;16.90;59.00
32706;DHT22;19094;50.972;3.538;2023-05-19T04:27:44;16.90;58.90
32706;DHT22;19094;50.972;3.538;2023-05-19T04:30:11;16.90;59.00
32706;DHT22;19094;50.972;3.538;2023-05-19T04:32:36;16.90;58.90
32706;DHT22;19094;50.972;3.538;2023-05-19T04:35:04;16.90;58.90
32706;DHT22;19094;50.972;3.538;2023-05-19T04:37:30;16.90;59.10
32706;DHT22;19094;50.972;3.538;2023-05-19T04:39:55;16.90;59.00
32706;DHT22;19094;50.972;3.538;2023-05-19T04:42:21;16.90;59.10
32706;DHT22;19094;50.972;3.538;2023-05-19T04:44:50;16.90;59.00
32706;DHT22;19094;50.972;3.538;2023-05-19T04:47:16;16.90;59.00
32706;DHT22;19094;50.972;3.538;2023-05-19T04:49:42;16.90;59.00
32706;DHT22;19094;50.972;3.538;2023-05-19T04:52:09;16.90;59.10
32706;DHT22;19094;50.972;3.538;2023-05-19T04:54:35;16.90;59.20
32706;DHT22;19094;50.972;3.538;2023-05-19T04:57:02;16.80;59.30
32706;DHT22;19094;50.972;3.538;2023-05-19T04:59:27;16.80;59.40
32706;DHT22;19094;50.972;3.538;2023-05-19T05:01:53;16.90;59.30
32706;DHT22;19094;50.972;3.538;2023-05-19T05:04:19;16.90;59.30
32706;DHT22;19094;50.972;3.538;2023-05-19T05:06:46;16.90;59.10
32706;DHT22;19094;50.972;3.538;2023-05-19T05:09:14;16.90;59.40
32706;DHT22;19094;50.972;3.538;2023-05-19T05:11:40;16.90;59.20
32706;DHT22;19094;50.972;3.538;2023-05-19T05:14:06;16.90;59.30
32706;DHT22;19094;50.972;3.538;2023-05-19T05:16:32;16.90;59.30
32706;DHT22;19094;50.972;3.538;2023-05-19T05:18:59;16.90;59.30
32706;DHT22;19094;50.972;3.538;2023-05-19T05:21:25;16.90;59.50
32706;DHT22;19094;50.972;3.538;2023-05-19T05:23:52;16.90;59.40
32706;DHT22;19094;50.972;3.538;2023-05-19T05:26:19;16.90;59.30
32706;DHT22;19094;50.972;3.538;2023-05-19T05:28:48;16.80;59.40
32706;DHT22;19094;50.972;3.538;2023-05-19T05:31:14;16.80;59.50
32706;DHT22;19094;50.972;3.538;2023-05-19T05:33:40;16.80;59.40
32706;DHT22;19094;50.972;3.538;2023-05-19T05:36:06;16.80;59.40
32706;DHT22;19094;50.972;3.538;2023-05-19T05:38:32;16.80;59.40
32706;DHT22;19094;50.972;3.538;2023-05-19T05:40:57;16.90;59.40
32706;DHT22;19094;50.972;3.538;2023-05-19T05:43:23;16.90;59.30
32706;DHT22;19094;50.972;3.538;2023-05-19T05:45:48;16.80;59.30
32706;DHT22;19094;50.972;3.538;2023-05-19T05:48:14;16.90;59.40
32706;DHT22;19094;50.972;3.538;2023-05-19T05:50:44;16.80;59.30
32706;DHT22;19094;50.972;3.538;2023-05-19T05:53:15;16.90;60.00
32706;DHT22;19094;50.972;3.538;2023-05-19T05:55:42;16.90;59.30
32706;DHT22;19094;50.972;3.538;2023-05-19T05:58:09;16.80;59.30
32706;DHT22;19094;50.972;3.538;2023-05-19T06:00:36;16.80;59.40
32706;DHT22;19094;50.972;3.538;2023-05-19T06:03:02;16.90;59.40
32706;DHT22;19094;50.972;3.538;2023-05-19T06:05:29;16.90;59.40
32706;DHT22;19094;50.972;3.538;2023-05-19T06:07:54;16.90;59.30
32706;DHT22;19094;50.972;3.538;2023-05-19T06:10:20;16.90;59.30
32706;DHT22;19094;50.972;3.538;2023-05-19T06:12:46;16.90;59.40
32706;DHT22;19094;50.972;3.538;2023-05-19T06:15:12;16.90;59.30
32706;DHT22;19094;50.972;3.538;2023-05-19T06:17:38;16.90;59.20
32706;DHT22;19094;50.972;3.538;2023-05-19T06:20:04;16.90;59.20
32706;DHT22;19094;50.972;3.538;2023-05-19T06:22:30;17.00;59.20
32706;DHT22;19094;50.972;3.538;2023-05-19T06:24:56;17.00;59.20
32706;DHT22;19094;50.972;3.538;2023-05-19T06:27:22;17.00;59.00
32706;DHT22;19094;50.972;3.538;2023-05-19T06:29:48;17.00;59.00
32706;DHT22;19094;50.972;3.538;2023-05-19T06:32:13;17.00;59.00
32706;DHT22;19094;50.972;3.538;2023-05-19T06:34:39;17.00;58.90
32706;DHT22;19094;50.972;3.538;2023-05-19T06:37:05;17.00;58.90
32706;DHT22;19094;50.972;3.538;2023-05-19T06:39:31;17.00;58.70
32706;DHT22;19094;50.972;3.538;2023-05-19T06:41:56;17.10;58.60
32706;DHT22;19094;50.972;3.538;2023-05-19T06:44:22;17.10;58.60
32706;DHT22;19094;50.972;3.538;2023-05-19T06:46:48;17.10;58.50
32706;DHT22;19094;50.972;3.538;2023-05-19T06:49:13;17.20;58.30
32706;DHT22;19094;50.972;3.538;2023-05-19T06:51:39;17.20;58.20
32706;DHT22;19094;50.972;3.538;2023-05-19T06:54:04;17.20;58.10
32706;DHT22;19094;50.972;3.538;2023-05-19T06:56:30;17.20;58.10
32706;DHT22;19094;50.972;3.538;2023-05-19T06:58:56;17.20;58.20
32706;DHT22;19094;50.972;3.538;2023-05-19T07:01:21;17.30;58.00
32706;DHT22;19094;50.972;3.538;2023-05-19T07:03:47;17.30;58.00
32706;DHT22;19094;50.972;3.538;2023-05-19T07:06:13;17.30;57.90
32706;DHT22;19094;50.972;3.538;2023-05-19T07:08:38;17.30;57.90
32706;DHT22;19094;50.972;3.538;2023-05-19T07:11:04;17.40;57.90
32706;DHT22;19094;50.972;3.538;2023-05-19T07:13:30;17.40;57.60
32706;DHT22;19094;50.972;3.538;2023-05-19T07:15:57;17.40;57.50
32706;DHT22;19094;50.972;3.538;2023-05-19T07:18:23;17.40;57.70
32706;DHT22;19094;50.972;3.538;2023-05-19T07:20:51;17.40;57.60
32706;DHT22;19094;50.972;3.538;2023-05-19T07:23:17;17.40;57.70
32706;DHT22;19094;50.972;3.538;2023-05-19T07:25:43;17.40;57.60
32706;DHT22;19094;50.972;3.538;2023-05-19T07:28:08;17.50;57.40
32706;DHT22;19094;50.972;3.538;2023-05-19T07:30:34;17.50;57.30
32706;DHT22;19094;50.972;3.538;2023-05-19T07:33:00;17.40;57.30
32706;DHT22;19094;50.972;3.538;2023-05-19T07:35:25;17.50;57.20
32706;DHT22;19094;50.972;3.538;2023-05-19T07:37:51;17.50;57.50
32706;DHT22;19094;50.972;3.538;2023-05-19T07:40:17;17.70;57.20
32706;DHT22;19094;50.972;3.538;2023-05-19T07:42:43;17.70;57.30
32706;DHT22;19094;50.972;3.538;2023-05-19T07:45:10;17.80;56.60
32706;DHT22;19094;50.972;3.538;2023-05-19T07:47:36;17.80;58.00
32706;DHT22;19094;50.972;3.538;2023-05-19T07:50:02;17.60;58.80
32706;DHT22;19094;50.972;3.538;2023-05-19T07:52:27;17.70;58.80
32706;DHT22;19094;50.972;3.538;2023-05-19T07:54:53;17.80;57.80
32706;DHT22;19094;50.972;3.538;2023-05-19T07:57:19;17.90;57.20
32706;DHT22;19094;50.972;3.538;2023-05-19T07:59:44;17.90;56.90
32706;DHT22;19094;50.972;3.538;2023-05-19T08:02:10;17.80;58.00
32706;DHT22;19094;50.972;3.538;2023-05-19T08:04:36;17.80;59.90
32706;DHT22;19094;50.972;3.538;2023-05-19T08:07:01;17.80;60.50
32706;DHT22;19094;50.972;3.538;2023-05-19T08:09:28;17.80;61.10
32706;DHT22;19094;50.972;3.538;2023-05-19T08:11:53;17.90;61.50
32706;DHT22;19094;50.972;3.538;2023-05-19T08:14:19;17.90;61.00
32706;DHT22;19094;50.972;3.538;2023-05-19T08:16:47;17.90;60.50
32706;DHT22;19094;50.972;3.538;2023-05-19T08:19:16;18.00;59.90
32706;DHT22;19094;50.972;3.538;2023-05-19T08:21:41;18.00;60.70
32706;DHT22;19094;50.972;3.538;2023-05-19T08:24:08;18.20;60.70
32706;DHT22;19094;50.972;3.538;2023-05-19T08:26:33;18.30;60.20
32706;DHT22;19094;50.972;3.538;2023-05-19T08:28:59;18.30;60.20
32706;DHT22;19094;50.972;3.538;2023-05-19T08:31:25;18.20;60.00
32706;DHT22;19094;50.972;3.538;2023-05-19T08:33:51;18.20;61.00
32706;DHT22;19094;50.972;3.538;2023-05-19T08:36:17;18.20;60.90
32706;DHT22;19094;50.972;3.538;2023-05-19T08:38:43;18.20;61.20
32706;DHT22;19094;50.972;3.538;2023-05-19T08:41:08;18.20;60.70
32706;DHT22;19094;50.972;3.538;2023-05-19T08:43:34;18.30;61.10
32706;DHT22;19094;50.972;3.538;2023-05-19T08:46:01;18.30;60.80
32706;DHT22;19094;50.972;3.538;2023-05-19T08:48:28;18.40;60.60
32706;DHT22;19094;50.972;3.538;2023-05-19T08:51:13;18.50;60.70
32706;DHT22;19094;50.972;3.538;2023-05-19T08:53:41;18.60;60.30
32706;DHT22;19094;50.972;3.538;2023-05-19T08:56:15;18.60;60.00
32706;DHT22;19094;50.972;3.538;2023-05-19T08:58:43;18.60;59.90
32706;DHT22;19094;50.972;3.538;2023-05-19T09:01:12;18.70;60.10
32706;DHT22;19094;50.972;3.538;2023-05-19T09:03:39;18.70;59.80
32706;DHT22;19094;50.972;3.538;2023-05-19T09:06:08;18.80;59.10
32706;DHT22;19094;50.972;3.538;2023-05-19T09:08:37;18.90;59.40
32706;DHT22;19094;50.972;3.538;2023-05-19T09:11:02;18.80;59.60
32706;DHT22;19094;50.972;3.538;2023-05-19T09:13:28;18.80;59.40
32706;DHT22;19094;50.972;3.538;2023-05-19T09:15:55;18.80;60.40
32706;DHT22;19094;50.972;3.538;2023-05-19T09:18:23;18.70;59.80
32706;DHT22;19094;50.972;3.538;2023-05-19T09:20:49;18.80;61.60
32706;DHT22;19094;50.972;3.538;2023-05-19T09:23:16;18.80;60.60
32706;DHT22;19094;50.972;3.538;2023-05-19T09:25:52;19.00;60.30
32706;DHT22;19094;50.972;3.538;2023-05-19T09:28:28;19.10;60.10
32706;DHT22;19094;50.972;3.538;2023-05-19T09:31:05;19.00;60.00
32706;DHT22;19094;50.972;3.538;2023-05-19T09:33:39;19.00;59.80
32706;DHT22;19094;50.972;3.538;2023-05-19T09:36:05;19.00;59.80
32706;DHT22;19094;50.972;3.538;2023-05-19T09:38:34;19.10;60.60
32706;DHT22;19094;50.972;3.538;2023-05-19T09:41:00;19.20;60.30
32706;DHT22;19094;50.972;3.538;2023-05-19T09:43:30;19.30;60.00
32706;DHT22;19094;50.972;3.538;2023-05-19T09:46:08;19.40;59.50
32706;DHT22;19094;50.972;3.538;2023-05-19T09:48:34;19.40;59.70
32706;DHT22;19094;50.972;3.538;2023-05-19T09:51:01;19.50;58.90
32706;DHT22;19094;50.972;3.538;2023-05-19T09:53:28;19.50;59.30
32706;DHT22;19094;50.972;3.538;2023-05-19T09:55:55;19.60;59.00
32706;DHT22;19094;50.972;3.538;2023-05-19T09:58:25;19.80;58.90
32706;DHT22;19094;50.972;3.538;2023-05-19T10:00:52;19.90;59.00
32706;DHT22;19094;50.972;3.538;2023-05-19T10:03:20;20.10;58.00
32706;DHT22;19094;50.972;3.538;2023-05-19T10:05:47;20.10;58.10
32706;DHT22;19094;50.972;3.538;2023-05-19T10:08:16;20.20;57.90
32706;DHT22;19094;50.972;3.538;2023-05-19T10:10:43;20.30;57.90
32706;DHT22;19094;50.972;3.538;2023-05-19T10:13:11;20.50;57.60
32706;DHT22;19094;50.972;3.538;2023-05-19T10:15:37;20.50;57.00
32706;DHT22;19094;50.972;3.538;2023-05-19T10:18:06;20.40;57.30
32706;DHT22;19094;50.972;3.538;2023-05-19T10:20:33;20.40;57.60
32706;DHT22;19094;50.972;3.538;2023-05-19T10:22:59;20.60;57.00
32706;DHT22;19094;50.972;3.538;2023-05-19T10:25:26;20.70;56.70
32706;DHT22;19094;50.972;3.538;2023-05-19T10:27:58;20.60;57.00
32706;DHT22;19094;50.972;3.538;2023-05-19T10:30:31;20.70;56.50
32706;DHT22;19094;50.972;3.538;2023-05-19T10:32:59;20.70;56.70
32706;DHT22;19094;50.972;3.538;2023-05-19T10:35:35;20.80;56.10
32706;DHT22;19094;50.972;3.538;2023-05-19T10:38:15;20.80;56.40
32706;DHT22;19094;50.972;3.538;2023-05-19T10:41:01;20.90;56.30
32706;DHT22;19094;50.972;3.538;2023-05-19T10:43:43;20.90;56.50
32706;DHT22;19094;50.972;3.538;2023-05-19T10:46:11;21.00;55.90
32706;DHT22;19094;50.972;3.538;2023-05-19T10:48:37;21.00;56.00
32706;DHT22;19094;50.972;3.538;2023-05-19T10:51:03;21.00;56.00
32706;DHT22;19094;50.972;3.538;2023-05-19T10:53:32;21.00;56.20
32706;DHT22;19094;50.972;3.538;2023-05-19T10:56:00;21.00;55.90
32706;DHT22;19094;50.972;3.538;2023-05-19T10:58:38;21.00;55.90
32706;DHT22;19094;50.972;3.538;2023-05-19T11:01:29;21.00;55.90
32706;DHT22;19094;50.972;3.538;2023-05-19T11:03:55;21.00;56.30
32706;DHT22;19094;50.972;3.538;2023-05-19T11:06:26;21.00;56.50
32706;DHT22;19094;50.972;3.538;2023-05-19T11:08:59;21.10;56.20
32706;DHT22;19094;50.972;3.538;2023-05-19T11:11:25;21.20;55.70
32706;DHT22;19094;50.972;3.538;2023-05-19T11:13:55;21.20;56.00
32706;DHT22;19094;50.972;3.538;2023-05-19T11:16:28;21.20;55.90
32706;DHT22;19094;50.972;3.538;2023-05-19T11:18:55;21.20;55.70
32706;DHT22;19094;50.972;3.538;2023-05-19T11:21:21;21.10;55.40
32706;DHT22;19094;50.972;3.538;2023-05-19T11:23:46;21.20;55.00
32706;DHT22;19094;50.972;3.538;2023-05-19T11:26:12;21.20;54.80
32706;DHT22;19094;50.972;3.538;2023-05-19T11:28:38;21.30;54.80
32706;DHT22;19094;50.972;3.538;2023-05-19T11:31:05;21.30;55.00
32706;DHT22;19094;50.972;3.538;2023-05-19T11:33:32;21.40;54.70
32706;DHT22;19094;50.972;3.538;2023-05-19T11:35:58;21.50;54.70
32706;DHT22;19094;50.972;3.538;2023-05-19T11:38:25;21.50;53.90
32706;DHT22;19094;50.972;3.538;2023-05-19T11:40:54;21.60;54.20
32706;DHT22;19094;50.972;3.538;2023-05-19T11:43:24;21.70;53.60
32706;DHT22;19094;50.972;3.538;2023-05-19T11:45:50;21.70;53.80
32706;DHT22;19094;50.972;3.538;2023-05-19T11:48:16;21.80;52.80
32706;DHT22;19094;50.972;3.538;2023-05-19T11:50:44;21.80;53.60
32706;DHT22;19094;50.972;3.538;2023-05-19T11:53:11;21.80;53.50
32706;DHT22;19094;50.972;3.538;2023-05-19T11:55:42;21.90;52.50
32706;DHT22;19094;50.972;3.538;2023-05-19T11:58:11;21.80;53.40
32706;DHT22;19094;50.972;3.538;2023-05-19T12:00:39;21.80;53.50
32706;DHT22;19094;50.972;3.538;2023-05-19T12:03:05;21.80;53.30
32706;DHT22;19094;50.972;3.538;2023-05-19T12:05:31;21.70;52.30
32706;DHT22;19094;50.972;3.538;2023-05-19T12:07:59;21.80;52.60
32706;DHT22;19094;50.972;3.538;2023-05-19T12:10:26;21.90;52.90
32706;DHT22;19094;50.972;3.538;2023-05-19T12:12:55;21.80;53.10
32706;DHT22;19094;50.972;3.538;2023-05-19T12:15:22;21.80;53.10
32706;DHT22;19094;50.972;3.538;2023-05-19T12:18:01;21.80;52.90
32706;DHT22;19094;50.972;3.538;2023-05-19T12:20:28;21.90;52.90
32706;DHT22;19094;50.972;3.538;2023-05-19T12:22:56;21.90;52.60
32706;DHT22;19094;50.972;3.538;2023-05-19T12:25:22;21.90;52.60
32706;DHT22;19094;50.972;3.538;2023-05-19T12:27:49;21.90;52.50
32706;DHT22;19094;50.972;3.538;2023-05-19T12:30:17;21.90;52.70
32706;DHT22;19094;50.972;3.538;2023-05-19T12:32:45;21.90;52.60
32706;DHT22;19094;50.972;3.538;2023-05-19T12:35:11;22.00;52.30
32706;DHT22;19094;50.972;3.538;2023-05-19T12:37:40;22.10;52.20
32706;DHT22;19094;50.972;3.538;2023-05-19T12:40:07;22.20;52.00
32706;DHT22;19094;50.972;3.538;2023-05-19T12:42:33;22.20;51.90
32706;DHT22;19094;50.972;3.538;2023-05-19T12:45:01;22.30;51.70
32706;DHT22;19094;50.972;3.538;2023-05-19T12:47:33;22.20;51.80
32706;DHT22;19094;50.972;3.538;2023-05-19T12:52:26;22.30;51.80
32706;DHT22;19094;50.972;3.538;2023-05-19T12:54:59;22.40;51.20
32706;DHT22;19094;50.972;3.538;2023-05-19T12:57:26;22.50;51.20
32706;DHT22;19094;50.972;3.538;2023-05-19T12:59:52;22.50;51.10
32706;DHT22;19094;50.972;3.538;2023-05-19T13:02:18;22.60;51.00
32706;DHT22;19094;50.972;3.538;2023-05-19T13:04:45;22.70;50.30
32706;DHT22;19094;50.972;3.538;2023-05-19T13:07:10;22.70;50.30
32706;DHT22;19094;50.972;3.538;2023-05-19T13:09:36;22.70;50.70
32706;DHT22;19094;50.972;3.538;2023-05-19T13:12:02;22.60;50.70
32706;DHT22;19094;50.972;3.538;2023-05-19T13:14:29;22.80;49.70
32706;DHT22;19094;50.972;3.538;2023-05-19T13:16:54;22.80;50.40
32706;DHT22;19094;50.972;3.538;2023-05-19T13:19:20;22.80;50.30
32706;DHT22;19094;50.972;3.538;2023-05-19T13:21:45;22.80;50.20
32706;DHT22;19094;50.972;3.538;2023-05-19T13:24:15;22.80;50.40
32706;DHT22;19094;50.972;3.538;2023-05-19T13:26:41;22.90;51.10
32706;DHT22;19094;50.972;3.538;2023-05-19T13:29:07;23.00;50.40
32706;DHT22;19094;50.972;3.538;2023-05-19T13:31:33;22.90;50.80
32706;DHT22;19094;50.972;3.538;2023-05-19T13:33:58;23.00;50.70
32706;DHT22;19094;50.972;3.538;2023-05-19T13:36:25;23.00;50.70
32706;DHT22;19094;50.972;3.538;2023-05-19T13:38:52;23.10;50.30
32706;DHT22;19094;50.972;3.538;2023-05-19T13:41:22;22.90;50.30
32706;DHT22;19094;50.972;3.538;2023-05-19T13:43:49;23.00;50.00
32706;DHT22;19094;50.972;3.538;2023-05-19T13:46:15;23.00;49.70
32706;DHT22;19094;50.972;3.538;2023-05-19T13:48:40;23.00;49.80
32706;DHT22;19094;50.972;3.538;2023-05-19T13:51:06;22.90;49.50
32706;DHT22;19094;50.972;3.538;2023-05-19T13:53:31;23.00;49.30
32706;DHT22;19094;50.972;3.538;2023-05-19T13:55:59;23.00;48.60
32706;DHT22;19094;50.972;3.538;2023-05-19T13:58:25;23.00;48.70
32706;DHT22;19094;50.972;3.538;2023-05-19T14:00:51;23.10;48.60
32706;DHT22;19094;50.972;3.538;2023-05-19T14:03:19;23.10;48.60
32706;DHT22;19094;50.972;3.538;2023-05-19T14:05:47;23.20;48.60
32706;DHT22;19094;50.972;3.538;2023-05-19T14:08:13;23.10;48.50
32706;DHT22;19094;50.972;3.538;2023-05-19T14:10:38;23.20;48.60
32706;DHT22;19094;50.972;3.538;2023-05-19T14:13:04;23.10;48.60
32706;DHT22;19094;50.972;3.538;2023-05-19T14:15:31;23.20;48.50
32706;DHT22;19094;50.972;3.538;2023-05-19T14:18:02;23.20;48.40
32706;DHT22;19094;50.972;3.538;2023-05-19T14:20:27;23.20;48.40
32706;DHT22;19094;50.972;3.538;2023-05-19T14:22:53;23.20;48.30
32706;DHT22;19094;50.972;3.538;2023-05-19T14:25:19;23.20;48.30
32706;DHT22;19094;50.972;3.538;2023-05-19T14:27:45;23.20;48.30
32706;DHT22;19094;50.972;3.538;2023-05-19T14:30:11;23.30;48.20
32706;DHT22;19094;50.972;3.538;2023-05-19T14:32:37;23.30;48.00
32706;DHT22;19094;50.972;3.538;2023-05-19T14:35:03;23.30;48.00
32706;DHT22;19094;50.972;3.538;2023-05-19T14:37:28;23.20;48.10
32706;DHT22;19094;50.972;3.538;2023-05-19T14:39:56;23.30;46.80
32706;DHT22;19094;50.972;3.538;2023-05-19T14:42:22;23.30;47.50
32706;DHT22;19094;50.972;3.538;2023-05-19T14:44:48;23.30;47.50
32706;DHT22;19094;50.972;3.538;2023-05-19T14:47:14;23.20;47.70
32706;DHT22;19094;50.972;3.538;2023-05-19T14:49:39;23.30;46.00
32706;DHT22;19094;50.972;3.538;2023-05-19T14:52:05;23.30;46.00
32706;DHT22;19094;50.972;3.538;2023-05-19T14:54:31;23.40;45.20
32706;DHT22;19094;50.972;3.538;2023-05-19T14:56:56;23.40;45.20
32706;DHT22;19094;50.972;3.538;2023-05-19T14:59:22;23.30;45.20
32706;DHT22;19094;50.972;3.538;2023-05-19T15:01:49;23.30;45.00
32706;DHT22;19094;50.972;3.538;2023-05-19T15:04:14;23.30;44.50
32706;DHT22;19094;50.972;3.538;2023-05-19T15:06:40;23.30;44.80
32706;DHT22;19094;50.972;3.538;2023-05-19T15:09:06;23.40;44.30
32706;DHT22;19094;50.972;3.538;2023-05-19T15:11:31;23.30;44.30
32706;DHT22;19094;50.972;3.538;2023-05-19T15:13:57;23.20;44.20
32706;DHT22;19094;50.972;3.538;2023-05-19T15:16:23;23.20;44.00
32706;DHT22;19094;50.972;3.538;2023-05-19T15:18:48;23.20;43.60
32706;DHT22;19094;50.972;3.538;2023-05-19T15:21:16;23.20;43.60
32706;DHT22;19094;50.972;3.538;2023-05-19T15:23:41;23.30;43.30
32706;DHT22;19094;50.972;3.538;2023-05-19T15:26:07;23.30;43.40
32706;DHT22;19094;50.972;3.538;2023-05-19T15:28:33;23.40;43.00
32706;DHT22;19094;50.972;3.538;2023-05-19T15:30:58;23.50;42.80
32706;DHT22;19094;50.972;3.538;2023-05-19T15:33:24;23.50;42.80
32706;DHT22;19094;50.972;3.538;2023-05-19T15:35:50;23.60;42.90
32706;DHT22;19094;50.972;3.538;2023-05-19T15:38:17;23.70;43.30
32706;DHT22;19094;50.972;3.538;2023-05-19T15:40:43;23.70;43.50
32706;DHT22;19094;50.972;3.538;2023-05-19T15:43:09;23.60;43.80
32706;DHT22;19094;50.972;3.538;2023-05-19T15:45:34;23.60;43.90
32706;DHT22;19094;50.972;3.538;2023-05-19T15:48:00;23.60;44.20
32706;DHT22;19094;50.972;3.538;2023-05-19T15:50:26;23.50;44.30
32706;DHT22;19094;50.972;3.538;2023-05-19T15:52:51;23.50;44.10